createdAt,value
2022-08-08T00:01:21.254Z,22.43
2022-08-08T00:04:35.798Z,22.43
2022-08-08T00:07:12.772Z,22.43
2022-08-08T00:10:16.807Z,22.58
2022-08-08T00:12:56.894Z,22.87
2022-08-08T00:15:55.846Z,23.00
2022-08-08T00:18:38.105Z,22.87
2022-08-08T00:21:08.072Z,22.98
2022-08-08T00:23:51.103Z,23.10
2022-08-08T00:26:30.157Z,22.68
2022-08-08T00:29:44.782Z,22.67
2022-08-08T00:32:38.430Z,22.68
2022-08-08T00:35:25.444Z,22.27
2022-08-08T00:38:02.759Z,22.36
2022-08-08T00:41:11.592Z,22.28
2022-08-08T00:43:46.057Z,21.98
2022-08-08T00:46:57.508Z,22.36
2022-08-08T00:49:32.122Z,21.68
2022-08-08T00:52:20.547Z,21.92
2022-08-08T00:55:10.507Z,21.63
2022-08-08T00:58:02.474Z,21.78
2022-08-08T01:00:38.032Z,21.77
2022-08-08T01:04:01.662Z,21.93
2022-08-08T01:06:29.823Z,21.52
2022-08-08T01:09:41.346Z,21.50
2022-08-08T01:12:37.674Z,21.93
2022-08-08T01:15:17.199Z,21.68
2022-08-08T01:18:53.152Z,21.60
2022-08-08T01:22:10.119Z,21.95
2022-08-08T01:24:58.952Z,21.96
2022-08-08T01:28:00.239Z,21.94
2022-08-08T01:30:53.448Z,21.68
2022-08-08T01:33:43.214Z,21.34
2022-08-08T01:36:34.886Z,21.23
2022-08-08T01:41:50.575Z,21.35
2022-08-08T01:44:50.677Z,21.36
2022-08-08T01:48:14.742Z,20.77
2022-08-08T01:51:03.021Z,21.15
2022-08-08T01:55:16.386Z,21.39
2022-08-08T01:58:11.369Z,21.01
2022-08-08T02:00:43.456Z,21.04
2022-08-08T02:03:54.571Z,21.53
2022-08-08T02:06:51.952Z,21.46
2022-08-08T02:10:03.838Z,21.04
2022-08-08T02:12:33.417Z,21.39
2022-08-08T02:15:11.083Z,21.77
2022-08-08T02:17:58.993Z,21.82
2022-08-08T02:21:01.089Z,21.95
2022-08-08T02:23:19.474Z,21.68
2022-08-08T02:26:21.393Z,21.90
2022-08-08T02:29:00.193Z,21.51
2022-08-08T02:32:10.896Z,21.58
2022-08-08T02:35:10.339Z,21.54
2022-08-08T02:38:25.674Z,21.89
2022-08-08T02:41:59.569Z,21.77
2022-08-08T02:44:38.150Z,21.91
2022-08-08T02:47:58.822Z,21.93
2022-08-08T02:51:03.614Z,21.24
2022-08-08T02:53:56.868Z,21.72
2022-08-08T02:56:45.382Z,21.45
2022-08-08T03:00:01.584Z,21.58
2022-08-08T03:02:58.424Z,21.42
2022-08-08T03:08:54.341Z,21.71
2022-08-08T03:12:01.095Z,21.43
2022-08-08T03:15:58.850Z,21.17
2022-08-08T03:17:52.148Z,21.01
2022-08-08T03:20:51.833Z,21.47
2022-08-08T03:23:23.698Z,21.32
2022-08-08T03:25:51.934Z,21.48
2022-08-08T03:28:33.013Z,20.84
2022-08-08T03:31:13.602Z,21.30
2022-08-08T03:33:56.355Z,21.10
2022-08-08T03:36:30.530Z,21.19
2022-08-08T03:39:14.136Z,21.48
2022-08-08T03:42:27.057Z,21.00
2022-08-08T03:44:35.011Z,20.89
2022-08-08T03:47:07.062Z,21.54
2022-08-08T03:50:00.946Z,21.21
2022-08-08T03:52:34.058Z,21.40
2022-08-08T03:55:20.260Z,21.36
2022-08-08T03:58:30.813Z,21.34
2022-08-08T04:01:02.213Z,21.55
2022-08-08T04:03:58.910Z,21.46
2022-08-08T04:06:23.411Z,21.44
2022-08-08T04:08:50.134Z,21.51
2022-08-08T04:11:20.725Z,21.78
2022-08-08T04:14:04.161Z,21.73
2022-08-08T04:16:40.164Z,21.78
2022-08-08T04:19:24.183Z,21.29
2022-08-08T04:21:54.258Z,21.55
2022-08-08T04:24:29.678Z,20.98
2022-08-08T04:26:59.525Z,20.82
2022-08-08T04:29:27.461Z,20.70
2022-08-08T04:32:00.687Z,21.50
2022-08-08T04:34:32.418Z,21.32
2022-08-08T04:37:15.215Z,21.40
2022-08-08T04:40:04.290Z,21.34
2022-08-08T04:42:31.748Z,21.47
2022-08-08T04:45:00.504Z,21.98
2022-08-08T04:47:27.528Z,21.82
2022-08-08T04:50:00.768Z,21.49
2022-08-08T04:52:35.175Z,22.04
2022-08-08T04:55:04.460Z,22.10
2022-08-08T04:57:34.322Z,21.78
2022-08-08T05:00:02.281Z,22.32
2022-08-08T05:02:31.146Z,22.51
2022-08-08T05:04:59.904Z,22.21
2022-08-08T05:07:37.696Z,22.17
2022-08-08T05:10:08.803Z,21.47
2022-08-08T05:12:43.100Z,22.05
2022-08-08T05:15:31.434Z,22.07
2022-08-08T05:18:14.523Z,22.58
2022-08-08T05:20:50.039Z,22.36
2022-08-08T05:23:20.512Z,22.70
2022-08-08T05:25:49.641Z,22.78
2022-08-08T05:28:48.431Z,22.98
2022-08-08T05:31:19.487Z,23.22
2022-08-08T05:33:52.143Z,23.44
2022-08-08T05:36:25.552Z,23.37
2022-08-08T05:38:57.696Z,23.20
2022-08-08T05:41:25.915Z,23.39
2022-08-08T05:44:04.858Z,23.44
2022-08-08T05:46:33.289Z,23.77
2022-08-08T05:49:00.944Z,23.86
2022-08-08T05:51:28.263Z,23.61
2022-08-08T05:54:28.036Z,23.44
2022-08-08T05:57:04.669Z,23.57
2022-08-08T05:59:59.260Z,23.62
2022-08-08T06:02:44.134Z,23.78
2022-08-08T06:05:33.016Z,23.73
2022-08-08T06:08:09.573Z,23.72
2022-08-08T06:10:49.685Z,23.65
2022-08-08T06:14:03.753Z,23.44
2022-08-08T06:16:39.499Z,23.39
2022-08-08T06:19:16.336Z,23.79
2022-08-08T06:21:57.238Z,23.56
2022-08-08T06:24:30.424Z,23.15
2022-08-08T06:27:06.194Z,23.30
2022-08-08T06:29:59.777Z,23.07
2022-08-08T06:32:31.814Z,22.82
2022-08-08T06:36:04.575Z,22.98
2022-08-08T06:37:57.585Z,23.00
2022-08-08T06:40:27.159Z,22.64
2022-08-08T06:42:56.146Z,23.28
2022-08-08T06:45:24.206Z,23.27
2022-08-08T06:48:01.285Z,23.42
2022-08-08T06:50:31.726Z,23.42
2022-08-08T06:53:14.014Z,23.63
2022-08-08T06:55:47.125Z,23.88
2022-08-08T06:58:30.427Z,23.55
2022-08-08T07:01:01.319Z,23.48
2022-08-08T07:04:40.027Z,22.97
2022-08-08T07:06:56.397Z,23.03
2022-08-08T07:09:45.334Z,22.66
2022-08-08T07:12:30.672Z,23.08
2022-08-08T07:15:23.128Z,23.37
2022-08-08T07:18:01.635Z,23.62
2022-08-08T07:20:50.766Z,23.24
2022-08-08T07:23:27.255Z,23.03
2022-08-08T07:25:59.736Z,23.33
2022-08-08T07:28:31.781Z,22.90
2022-08-08T07:30:59.575Z,22.60
2022-08-08T07:33:27.765Z,22.92
2022-08-08T07:36:08.469Z,22.55
2022-08-08T07:38:37.924Z,22.87
2022-08-08T07:41:07.493Z,22.72
2022-08-08T07:43:53.484Z,22.80
2022-08-08T07:46:29.195Z,22.84
2022-08-08T07:48:57.722Z,23.23
2022-08-08T07:51:45.009Z,23.68
2022-08-08T07:54:58.975Z,23.61
2022-08-08T07:57:48.573Z,24.03
2022-08-08T08:00:17.112Z,23.62
2022-08-08T08:02:51.127Z,24.00
2022-08-08T08:05:26.323Z,24.11
2022-08-08T08:08:06.922Z,23.57
2022-08-08T08:10:36.255Z,23.45
2022-08-08T08:13:25.604Z,23.78
2022-08-08T08:16:12.063Z,24.20
2022-08-08T08:19:19.782Z,24.23
2022-08-08T08:21:56.846Z,23.64
2022-08-08T08:24:30.570Z,23.87
2022-08-08T08:26:59.967Z,24.31
2022-08-08T08:29:29.924Z,24.34
2022-08-08T08:32:03.434Z,24.76
2022-08-08T08:34:33.631Z,24.66
2022-08-08T08:37:08.041Z,24.75
2022-08-08T08:40:01.838Z,24.33
2022-08-08T08:42:35.793Z,24.35
2022-08-08T08:45:21.161Z,23.96
2022-08-08T08:47:55.061Z,23.79
2022-08-08T08:50:33.975Z,23.90
2022-08-08T08:53:54.309Z,23.60
2022-08-08T08:56:02.023Z,23.65
2022-08-08T08:58:38.242Z,24.06
2022-08-08T09:01:09.924Z,24.08
2022-08-08T09:03:47.658Z,24.41
2022-08-08T09:06:34.279Z,24.52
2022-08-08T09:09:04.057Z,24.05
2022-08-08T09:11:47.078Z,24.54
2022-08-08T09:14:25.832Z,24.41
2022-08-08T09:16:54.434Z,24.58
2022-08-08T09:21:56.001Z,23.98
2022-08-08T09:22:11.675Z,23.98
2022-08-08T09:24:40.237Z,23.93
2022-08-08T09:27:19.981Z,23.16
2022-08-08T09:30:10.932Z,23.74
2022-08-08T09:32:50.355Z,23.51
2022-08-08T09:35:37.448Z,23.24
2022-08-08T09:38:05.685Z,23.47
2022-08-08T09:40:43.965Z,23.97
2022-08-08T09:44:04.479Z,23.69
2022-08-08T09:46:25.412Z,23.85
2022-08-08T09:49:18.211Z,23.54
2022-08-08T09:52:09.912Z,23.35
2022-08-08T09:54:44.851Z,23.50
2022-08-08T09:57:19.149Z,24.02
2022-08-08T10:00:34.248Z,24.51
2022-08-08T10:02:57.574Z,24.46
2022-08-08T10:05:26.414Z,24.57
2022-08-08T10:08:00.068Z,24.63
2022-08-08T10:10:32.737Z,24.92
2022-08-08T10:13:29.878Z,25.23
2022-08-08T10:16:03.643Z,24.68
2022-08-08T10:18:34.667Z,24.85
2022-08-08T10:21:25.145Z,24.43
2022-08-08T10:24:03.160Z,24.66
2022-08-08T10:26:57.659Z,24.95
2022-08-08T10:29:58.612Z,24.89
2022-08-08T10:32:38.233Z,24.87
2022-08-08T10:36:06.858Z,24.11
2022-08-08T10:38:08.148Z,23.62
2022-08-08T10:40:38.371Z,23.83
2022-08-08T10:43:06.975Z,23.55
2022-08-08T10:45:56.524Z,24.38
2022-08-08T10:48:57.227Z,24.50
2022-08-08T10:51:47.486Z,24.76
2022-08-08T10:54:24.872Z,24.43
2022-08-08T10:57:05.511Z,24.34
2022-08-08T10:59:39.751Z,24.90
2022-08-08T11:02:09.291Z,24.97
2022-08-08T11:04:53.173Z,24.75
2022-08-08T11:08:30.152Z,25.22
2022-08-08T11:10:19.743Z,25.38
2022-08-08T11:13:27.131Z,25.04
2022-08-08T11:15:54.790Z,24.55
2022-08-08T11:18:31.532Z,25.06
2022-08-08T11:21:09.043Z,25.40
2022-08-08T11:23:42.105Z,25.15
2022-08-08T11:26:19.132Z,24.46
2022-08-08T11:28:47.775Z,24.69
2022-08-08T11:31:18.411Z,24.81
2022-08-08T11:34:03.601Z,25.14
2022-08-08T11:36:40.075Z,25.57
2022-08-08T11:39:12.993Z,25.15
2022-08-08T11:41:42.235Z,25.21
2022-08-08T11:44:11.974Z,24.83
2022-08-08T11:46:40.092Z,24.33
2022-08-08T11:49:14.240Z,24.45
2022-08-08T11:51:49.624Z,24.39
2022-08-08T11:54:38.329Z,24.82
2022-08-08T11:57:34.962Z,25.15
2022-08-08T12:00:07.328Z,24.41
2022-08-08T12:02:57.488Z,24.38
2022-08-08T12:05:35.983Z,24.28
2022-08-08T12:08:04.320Z,24.55
2022-08-08T12:10:32.298Z,24.96
2022-08-08T12:13:14.783Z,25.42
2022-08-08T12:15:51.732Z,25.65
2022-08-08T12:18:26.322Z,25.75
2022-08-08T12:20:58.813Z,26.06
2022-08-08T12:23:43.931Z,25.96
2022-08-08T12:26:27.480Z,26.76
2022-08-08T12:29:02.873Z,26.81
2022-08-08T12:31:39.451Z,26.68
2022-08-08T12:34:43.013Z,26.44
2022-08-08T12:37:41.822Z,25.11
2022-08-08T12:40:22.713Z,26.22
2022-08-08T12:42:52.313Z,25.59
2022-08-08T12:45:58.543Z,25.95
2022-08-08T12:48:37.002Z,25.88
2022-08-08T12:51:05.442Z,26.43
2022-08-08T12:53:41.690Z,27.06
2022-08-08T12:56:19.516Z,27.24
2022-08-08T12:58:54.433Z,27.25
2022-08-08T13:01:36.920Z,26.81
2022-08-08T13:04:18.683Z,26.57
2022-08-08T13:07:05.930Z,26.69
2022-08-08T13:09:57.769Z,27.33
2022-08-08T13:12:32.772Z,26.70
2022-08-08T13:15:12.369Z,27.03
2022-08-08T13:18:08.130Z,27.06
2022-08-08T13:20:27.898Z,26.66
2022-08-08T13:23:30.165Z,25.90
2022-08-08T13:25:43.874Z,25.58
2022-08-08T13:28:17.725Z,24.75
2022-08-08T13:30:45.476Z,25.81
2022-08-08T13:33:18.367Z,26.22
2022-08-08T13:35:50.595Z,25.79
2022-08-08T13:38:18.545Z,25.88
2022-08-08T13:40:46.167Z,25.72
2022-08-08T13:43:16.046Z,25.85
2022-08-08T13:45:47.217Z,25.26
2022-08-08T13:48:16.826Z,25.57
2022-08-08T13:50:52.517Z,25.55
2022-08-08T13:53:36.232Z,25.65
2022-08-08T13:56:11.290Z,25.90
2022-08-08T13:58:58.735Z,25.71
2022-08-08T14:01:32.832Z,25.93
2022-08-08T14:04:23.014Z,26.18
2022-08-08T14:06:58.943Z,25.42
2022-08-08T14:10:05.828Z,25.49
2022-08-08T14:12:30.604Z,24.74
2022-08-08T14:14:59.716Z,25.23
2022-08-08T14:17:57.795Z,25.31
2022-08-08T14:20:14.701Z,24.25
2022-08-08T14:22:43.150Z,24.91
2022-08-08T14:25:15.482Z,24.41
2022-08-08T14:27:59.730Z,24.31
2022-08-08T14:30:34.725Z,25.13
2022-08-08T14:33:02.022Z,24.90
2022-08-08T14:35:36.162Z,24.08
2022-08-08T14:38:34.402Z,23.92
2022-08-08T14:40:58.858Z,23.67
2022-08-08T14:44:02.836Z,23.19
2022-08-08T14:46:32.594Z,23.83
2022-08-08T14:49:09.510Z,24.00
2022-08-08T14:51:53.050Z,24.58
2022-08-08T14:54:28.739Z,24.38
2022-08-08T14:56:58.192Z,23.79
2022-08-08T14:59:43.593Z,23.83
2022-08-08T15:02:15.673Z,23.37
2022-08-08T15:04:43.283Z,23.79
2022-08-08T15:07:22.910Z,23.78
2022-08-08T15:10:00.196Z,23.24
2022-08-08T15:12:34.720Z,22.94
2022-08-08T15:15:01.653Z,22.91
2022-08-08T15:17:33.830Z,23.43
2022-08-08T15:20:04.614Z,23.70
2022-08-08T15:22:31.837Z,23.61
2022-08-08T15:24:58.668Z,23.49
2022-08-08T15:28:04.078Z,23.48
2022-08-08T15:30:14.685Z,23.81
2022-08-08T15:32:43.231Z,24.25
2022-08-08T15:35:10.945Z,23.22
2022-08-08T15:37:38.102Z,23.28
2022-08-08T15:40:11.336Z,23.47
2022-08-08T15:42:47.492Z,23.57
2022-08-08T15:45:16.385Z,23.30
2022-08-08T15:48:11.122Z,23.38
2022-08-08T15:50:51.337Z,23.09
2022-08-08T15:53:18.977Z,23.55
2022-08-08T15:55:47.298Z,23.05
2022-08-08T15:58:17.013Z,22.88
2022-08-08T16:00:50.343Z,23.19
2022-08-08T16:03:17.647Z,23.11
2022-08-08T16:05:53.264Z,23.30
2022-08-08T16:08:29.041Z,23.20
2022-08-08T16:13:27.361Z,23.39
2022-08-08T16:13:45.040Z,23.68
2022-08-08T16:16:17.276Z,23.46
2022-08-08T16:18:57.122Z,23.91
2022-08-08T16:21:27.656Z,23.46
2022-08-08T16:23:56.299Z,23.49
2022-08-08T16:26:34.719Z,23.32
2022-08-08T16:29:08.028Z,23.31
2022-08-08T16:31:37.674Z,23.67
2022-08-08T16:34:04.696Z,23.77
2022-08-08T16:36:33.319Z,23.30
2022-08-08T16:39:09.962Z,23.38
2022-08-08T16:41:51.030Z,23.48
2022-08-08T16:44:28.048Z,22.93
2022-08-08T16:47:21.914Z,23.20
2022-08-08T16:50:13.216Z,22.82
2022-08-08T16:55:07.221Z,23.21
2022-08-08T16:55:55.793Z,22.65
2022-08-08T16:58:18.773Z,22.52
2022-08-08T17:00:48.941Z,22.89
2022-08-08T17:03:24.700Z,22.83
2022-08-08T17:06:02.518Z,23.07
2022-08-08T17:08:30.082Z,23.30
2022-08-08T17:10:58.945Z,23.40
2022-08-08T17:13:41.453Z,23.35
2022-08-08T17:16:17.710Z,23.26
2022-08-08T17:18:49.220Z,23.25
2022-08-08T17:21:18.651Z,23.24
2022-08-08T17:24:00.461Z,22.95
2022-08-08T17:26:29.804Z,22.58
2022-08-08T17:28:58.565Z,22.62
2022-08-08T17:31:44.334Z,22.84
2022-08-08T17:34:54.212Z,22.48
2022-08-08T17:37:09.063Z,22.27
2022-08-08T17:40:03.398Z,22.54
2022-08-08T17:42:25.445Z,22.41
2022-08-08T17:44:52.836Z,22.56
2022-08-08T17:47:23.565Z,22.19
2022-08-08T17:49:53.063Z,22.03
2022-08-08T17:52:28.544Z,22.63
2022-08-08T17:54:56.937Z,22.62
2022-08-08T17:57:28.828Z,22.71
2022-08-08T18:00:02.316Z,22.77
2022-08-08T18:02:29.996Z,22.66
2022-08-08T18:05:04.504Z,22.95
2022-08-08T18:08:03.329Z,22.91
2022-08-08T18:10:31.404Z,22.82
2022-08-08T18:13:00.526Z,22.86
2022-08-08T18:15:31.294Z,22.95
2022-08-08T18:18:10.074Z,23.05
2022-08-08T18:20:55.338Z,22.63
2022-08-08T18:23:26.742Z,22.74
2022-08-08T18:25:53.705Z,22.80
2022-08-08T18:28:21.704Z,22.57
2022-08-08T18:30:52.593Z,22.72
2022-08-08T18:33:36.684Z,21.84
2022-08-08T18:36:18.811Z,22.20
2022-08-08T18:38:50.695Z,21.94
2022-08-08T18:41:19.206Z,22.50
2022-08-08T18:43:55.094Z,22.21
2022-08-08T18:46:56.452Z,22.17
2022-08-08T18:49:09.256Z,22.40
2022-08-08T18:51:54.082Z,22.59
2022-08-08T18:54:27.391Z,22.96
2022-08-08T18:56:57.391Z,22.64
2022-08-08T18:59:24.640Z,22.54
2022-08-08T19:02:25.185Z,23.00
2022-08-08T19:04:51.269Z,23.07
2022-08-08T19:07:23.112Z,22.67
2022-08-08T19:10:14.785Z,22.95
2022-08-08T19:12:39.599Z,22.43
2022-08-08T19:15:11.939Z,22.32
2022-08-08T19:17:48.238Z,22.43
2022-08-08T19:20:29.969Z,22.36
2022-08-08T19:22:59.115Z,22.37
2022-08-08T19:26:02.422Z,22.39
2022-08-08T19:28:19.553Z,21.85
2022-08-08T19:30:51.460Z,21.64
2022-08-08T19:33:39.655Z,21.00
2022-08-08T19:36:27.458Z,21.18
2022-08-08T19:38:54.642Z,21.32
2022-08-08T19:41:21.632Z,21.33
2022-08-08T19:44:03.404Z,20.80
2022-08-08T19:46:33.622Z,20.71
2022-08-08T19:49:03.122Z,21.33
2022-08-08T19:51:34.114Z,21.49
2022-08-08T19:54:06.234Z,21.50
2022-08-08T19:56:39.902Z,21.18
2022-08-08T20:02:02.420Z,21.51
2022-08-08T20:04:27.944Z,21.00
2022-08-08T20:06:56.825Z,20.43
2022-08-08T20:09:25.015Z,20.92
2022-08-08T20:11:52.077Z,20.41
2022-08-08T20:14:34.339Z,20.90
2022-08-08T20:17:01.923Z,20.70
2022-08-08T20:19:33.649Z,20.41
2022-08-08T20:22:13.384Z,20.75
2022-08-08T20:24:52.504Z,21.02
2022-08-08T20:27:43.916Z,21.18
2022-08-08T20:30:10.854Z,21.25
2022-08-08T20:32:57.684Z,21.16
2022-08-08T20:35:56.606Z,21.45
2022-08-08T20:38:14.535Z,21.36
2022-08-08T20:40:41.916Z,21.64
2022-08-08T20:43:22.776Z,21.69
2022-08-08T20:45:57.777Z,21.84
2022-08-08T20:48:30.247Z,21.83
2022-08-08T20:50:57.090Z,21.86
2022-08-08T20:53:57.652Z,21.82
2022-08-08T20:56:11.653Z,21.93
2022-08-08T20:58:40.828Z,22.14
2022-08-08T21:01:19.881Z,22.07
2022-08-08T21:03:59.870Z,21.85
2022-08-08T21:06:52.161Z,21.70
2022-08-08T21:09:15.873Z,22.06
2022-08-08T21:11:50.360Z,21.85
2022-08-08T21:14:33.369Z,22.02
2022-08-08T21:17:06.754Z,22.15
2022-08-08T21:19:45.552Z,22.20
2022-08-08T21:22:14.490Z,22.06
2022-08-08T21:24:53.831Z,21.63
2022-08-08T21:28:06.275Z,21.99
2022-08-08T21:30:18.898Z,22.05
2022-08-08T21:32:51.136Z,21.63
2022-08-08T21:36:16.717Z,21.74
2022-08-08T21:38:09.424Z,21.50
2022-08-08T21:40:54.653Z,21.34
2022-08-08T21:43:23.767Z,21.66
2022-08-08T21:48:07.512Z,21.29
2022-08-08T21:48:44.254Z,21.49
2022-08-08T21:51:13.352Z,21.60
2022-08-08T21:54:30.714Z,21.61
2022-08-08T21:56:36.079Z,21.58
2022-08-08T21:59:09.740Z,21.51
2022-08-08T22:01:39.264Z,21.54
2022-08-08T22:04:12.409Z,21.52
2022-08-08T22:06:40.480Z,21.67
2022-08-08T22:09:09.055Z,21.70
2022-08-08T22:11:51.161Z,21.93
2022-08-08T22:14:26.588Z,22.00
2022-08-08T22:16:54.605Z,21.96
2022-08-08T22:19:23.630Z,22.00
2022-08-08T22:21:51.196Z,22.02
2022-08-08T22:24:17.943Z,22.28
2022-08-08T22:27:01.811Z,22.27
2022-08-08T22:29:59.719Z,21.96
2022-08-08T22:32:18.938Z,22.05
2022-08-08T22:34:50.826Z,22.19
2022-08-08T22:37:48.838Z,21.93
2022-08-08T22:40:11.813Z,21.77
2022-08-08T22:42:45.770Z,21.85
2022-08-08T22:45:15.235Z,21.91
2022-08-08T22:47:49.008Z,21.71
2022-08-08T22:50:26.151Z,21.95
2022-08-08T22:54:32.370Z,22.13
2022-08-08T22:55:59.720Z,21.94
2022-08-08T22:58:34.235Z,21.91
2022-08-08T23:01:30.213Z,22.00
2022-08-08T23:03:55.823Z,22.09
2022-08-08T23:06:25.062Z,22.16
2022-08-08T23:08:55.286Z,22.15
2022-08-08T23:12:17.760Z,21.76
2022-08-08T23:14:15.104Z,21.96
2022-08-08T23:16:44.158Z,22.00
2022-08-08T23:19:15.178Z,22.06
2022-08-08T23:21:42.451Z,22.11
2022-08-08T23:24:09.495Z,22.15
2022-08-08T23:26:36.216Z,21.96
2022-08-08T23:29:10.792Z,21.78
2022-08-08T23:31:38.753Z,21.97
2022-08-08T23:34:17.187Z,21.79
2022-08-08T23:36:46.351Z,21.70
2022-08-08T23:39:13.291Z,21.65
2022-08-08T23:41:41.542Z,21.76
2022-08-08T23:44:12.777Z,21.58
2022-08-08T23:49:07.545Z,21.69
2022-08-08T23:49:26.828Z,21.53
2022-08-08T23:52:05.355Z,21.27
2022-08-08T23:54:42.970Z,21.48
2022-08-08T23:57:26.479Z,21.75
